The WSOP Winter Online Circuit starts today at GGPoker

While the online part of the WSOP Main Event has just been wrapped up at GGPoker at the start of the week, the World Series and the fastest growing poker operator of the year will be sending off 2020 with another huge series at the virual felt.

As back in May, we’re again being treated to 18 WSOP Circuit Ring Events at the online tables, running from December 13 until January 10 with a total prize pool of more than $30 million and buy-ins starting at just $50.

Basically, any tournament of the series is a highlight in itself, with the most mouth-watering events of the WSOP Winter Online Circuit including:

  • $1,700 Main Event with a prize pool of $10 million guaranteed
  • $170 Mini Main Event with a prize pool of $2 million guaranteed
  • $10,300 Super MILLION$ with a prize pool of $5 million guaranteed
  • Big $50 Opening Event with a prize pool of $1 million guaranteed

The events are once again accompanied by a WSOPC Online Series Leaderboard with the 100 best players of the series sharing a leaderboard prize pool of $100,000 and points awarded for winning, reaching the final table, getting into the money as well as bubbling in the 18 Ring Events as well as a massive range of side events scheduled alongside the series by GGPoker.

wsop
The official WSOP Ring Event schedule at GGPoker

Tons of more events during the festival

The 18 WSOP Circuit Ring Events alone are of course more than enough reason to jump into the tournament frenzy this December to get one of the coveted rings at the virtual felt—but it doesn’t stop there at all.

GGPoker has come up with a huge schedule of hundreds of more events being hosted from December 7 until January 10, guaranteeing a jaw-dropping total prize pool of $100 million. Whatever you’re up to this month besides enjoying the Christmas festivities, you don’t want to miss out on this massive series when it comes to online poker.

WSOP Winter Online Circuit at GGPoker:Close Open full schedule

Date Time (GMT) Event Buy-in GTD
Dec 7 10:00 WSOPC #1: BIG $50, $1M GTD [Day 1] $50 $1,000,000
Dec 7 14:00 WSOPC #1: BIG $50, $1M GTD [Day 1] $50 $1,000,000
Dec 7 18:00 WSOPC #1: BIG $50, $1M GTD [Day 1] $50 $1,000,000
Dec 7 22:00 WSOPC #1: BIG $50, $1M GTD [Day 1] $50 $1,000,000
Dec 8 10:00 WSOPC #1: BIG $50, $1M GTD [Day 1] $50 $1,000,000
Dec 8 14:00 WSOPC #1: BIG $50, $1M GTD [Day 1] $50 $1,000,000
Dec 8 18:00 WSOPC #1: BIG $50, $1M GTD [Day 1] $50 $1,000,000
Dec 8 22:00 WSOPC #1: BIG $50, $1M GTD [Day 1] $50 $1,000,000
Dec 9 10:00 WSOPC #1: BIG $50, $1M GTD [Day 1] $50 $1,000,000
Dec 9 14:00 WSOPC #1: BIG $50, $1M GTD [Day 1] $50 $1,000,000
Dec 9 18:00 WSOPC #1: BIG $50, $1M GTD [Day 1] $50 $1,000,000
Dec 9 22:00 WSOPC #1: BIG $50, $1M GTD [Day 1] $50 $1,000,000
Dec 10 10:00 WSOPC #1: BIG $50, $1M GTD [Day 1] $50 $1,000,000
Dec 10 14:00 WSOPC #1: BIG $50, $1M GTD [Day 1] $50 $1,000,000
Dec 10 18:00 WSOPC #1: BIG $50, $1M GTD [Day 1] $50 $1,000,000
Dec 10 22:00 WSOPC #1: BIG $50, $1M GTD [Day 1] $50 $1,000,000
Dec 11 10:00 WSOPC #1: BIG $50, $1M GTD [Day 1] $50 $1,000,000
Dec 11 14:00 WSOPC #1: BIG $50, $1M GTD [Day 1] $50 $1,000,000
Dec 11 18:00 WSOPC #1: BIG $50, $1M GTD [Day 1] $50 $1,000,000
Dec 11 22:00 WSOPC #1: BIG $50, $1M GTD [Day 1] $50 $1,000,000
Dec 12 10:00 WSOPC #1: BIG $50, $1M GTD [Day 1] $50 $1,000,000
Dec 12 14:00 WSOPC #1: BIG $50, $1M GTD [Day 1] $50 $1,000,000
Dec 12 18:00 WSOPC #1: BIG $50, $1M GTD [Day 1] $50 $1,000,000
Dec 12 22:00 WSOPC #1: BIG $50, $1M GTD [Day 1] $50 $1,000,000
Dec 13 12:00 WSOPC Series: $100 Sunday Kick-Off $100 $100,000
Dec 13 13:00 WSOPC Series: $200 Sunday Monster Stack $200 $200,000
Dec 13 14:00 WSOPC Series: $300 Sunday Marathon $300 $250,000
Dec 13 14:00 WSOPC Series: $30 Mini Marathon $30 $100,000
Dec 13 14:30 WSOPC Series: $840 Sunday Terminator $840 $150,000
Dec 13 15:00 WSOPC Series: $500 Sunday Fifty Stack $500 $250,000
Dec 13 15:30 WSOPC Series: $210 Bounty Hunters Main Event $210 $500,000
Dec 13 16:00 WSOPC Series: $400 Sunday Forty Stack $400 $250,000
Dec 13 16:05 WSOPC High Rollers: $2,500 Blade Opener $2,500 $150,000
Dec 13 16:30 WSOPC Series: $52.50 Bounty Hunters Circuit Special $52,50 $200,000
Dec 13 17:30 WSOPC Series: $800 Deepstack Pot Limit Omaha $800 $100,000
Dec 13 17:30 WSOPC Series: $80 Deepstack Pot Limit Omaha $80 $40,000
Dec 13 18:00 WSOPC #2: $10,300 Super MILLION$ High Roller, $5M GTD $10.300 $5,000,000
Dec 13 18:05 WSOPC High Rollers: $2,500 Blade Prime $2,500 $250,000
Dec 13 18:30 WSOPC #1: BIG $50, $1M GTD [Day 2] $50 $1,000,000
Dec 13 18:30 WSOPC Series: $315 Bounty King Circuit $315 $500,000
Dec 13 18:30 WSOPC Series: $315 Sunday Bounty King Omaha $315 $100,000
Dec 13 18:35 WSOPC High Rollers: $3,150 Blade Bounty King $3.150 $250,000
Dec 13 19:00 WSOPC Series: $55 Sunday Fifty Stack $55 $150,000
Dec 13 20:00 WSOPC Series: $300 Sunday Triple Chance $300 $150,000
Dec 13 20:00 WSOPC Series: $30 Mini Triple Chance $30 $75,000
Dec 13 20:05 WSOPC High Rollers: $2,500 Blade Mulligan $2,500 $250,000
Dec 13 20:35 WSOPC High Rollers: $2,500 Blade PLO $2,500 $100,000
Dec 13 21:00 WSOPC Series: $1,050 Deepstack Bounty Turbo $1.050 $125,000
Dec 13 21:00 WSOPC Series: $126 Deepstack Bounty Turbo $126 $100,000
Dec 13 22:00 WSOPC Series: $800 The Closer HR $800 $75,000
Dec 13 22:00 WSOPC Series: $80 The Closer $80 $75,000
Dec 13 22:00 WSOPC Series: $800 The PLOser HR $800 $50,000
Dec 13 22:00 WSOPC Series: $80 The PLOser $80 $40,000
Dec 13 22:05 WSOPC High Rollers: $2,500 Blade Closer $2,500 $150,000
Dec 13 23:00 WSOPC Series: Circuit Speed Racer $210 [10 BB] $210 $50,000
Dec 14 10:00 WSOPC #6: $170 Mini Main Event, $2M GTD [Day 1] $170 $2,000,000
Dec 14 13:00 WSOPC Series: $200 Monster Stack $200 $50,000
Dec 14 14:00 WSOPC #6: $170 Mini Main Event, $2M GTD [Day 1] $170 $2,000,000
Dec 14 14:00 WSOPC Series: $300 Marathon $300 $100,000
Dec 14 14:00 WSOPC Series: $30 Mini Marathon $30 $50,000
Dec 14 15:00 WSOPC Series: $500 Fifty Stack $500 $100,000
Dec 14 15:30 WSOPC Series: $105 Bounty 6-Handed $105 $75,000
Dec 14 16:00 WSOPC Series: $400 Forty Stack $400 $100,000
Dec 14 16:05 WSOPC High Rollers: $2,500 Blade Opener $2,500 $100,000
Dec 14 16:30 WSOPC Series: $52.50 Bounty Hunters Daily Main $52,50 $100,000
Dec 14 17:00 WSOPC Series: $1,500 Deepstack $1,500 $150,000
Dec 14 17:30 WSOPC Series: $80 Deepstack Pot Limit Omaha $80 $20,000
Dec 14 18:00 WSOPC #6: $170 Mini Main Event, $2M GTD [Day 1] $170 $2,000,000
Dec 14 18:05 WSOPC High Rollers: $2,500 Blade Prime $2,500 $150,000
Dec 14 18:30 WSOPC Series: $315 Bounty King Circuit $315 $150,000
Dec 14 18:30 WSOPC Series: $315 Bounty King Omaha $315 $40,000
Dec 14 18:35 WSOPC High Rollers: $3,150 Blade Bounty King $3.150 $100,000
Dec 14 19:00 WSOPC Series: $55 Fifty Stack $55 $50,000
Dec 14 20:00 WSOPC Series: $300 Triple Chance $300 $75,000
Dec 14 20:00 WSOPC Series: $30 Mini Triple Chance $30 $25,000
Dec 14 20:05 WSOPC High Rollers: $2,500 Blade Mulligan $2,500 $150,000
Dec 14 20:35 WSOPC High Rollers: $2,500 Blade PLO $2,500 $50,000
Dec 14 21:00 WSOPC Series: $126 Deepstack Bounty Turbo $126 $60,000
Dec 14 22:00 WSOPC #6: $170 Mini Main Event, $2M GTD [Day 1] $170 $2,000,000
Dec 14 22:00 WSOPC Series: $80 The Closer $80 $25,000
Dec 14 22:00 WSOPC Series: $80 The PLOser $80 $15,000
Dec 14 22:05 WSOPC High Rollers: $2,500 Blade Closer $2,500 $100,000
Dec 15 10:00 WSOPC #6: $170 Mini Main Event, $2M GTD [Day 1] $170 $2,000,000
Dec 15 13:00 WSOPC Series: $200 Monster Stack $200 $50,000
Dec 15 14:00 WSOPC #6: $170 Mini Main Event, $2M GTD [Day 1] $170 $2,000,000
Dec 15 14:00 WSOPC Series: $300 Marathon $300 $100,000
Dec 15 14:00 WSOPC Series: $30 Mini Marathon $30 $50,000
Dec 15 15:00 WSOPC Series: $500 Fifty Stack $500 $100,000
Dec 15 15:30 WSOPC Series: $105 Bounty 6-Handed $105 $75,000
Dec 15 16:00 WSOPC Series: $400 Forty Stack $400 $100,000
Dec 15 16:05 WSOPC High Rollers: $2,500 Blade Opener $2,500 $100,000
Dec 15 16:30 WSOPC Series: $52.50 Bounty Hunters Daily Main $52,50 $100,000
Dec 15 17:00 WSOPC Series: $1,500 Deepstack $1,500 $150,000
Dec 15 17:30 WSOPC Series: $80 Deepstack Pot Limit Omaha $80 $20,000
Dec 15 18:00 WSOPC #6: $170 Mini Main Event, $2M GTD [Day 1] $170 $2,000,000
Dec 15 18:00 WSOPC #3: $3,000 Deepstack No Limit Hold’em Championship $3,000 $1,000,000
Dec 15 18:05 WSOPC High Rollers: $2,500 Blade Prime $2,500 $150,000
Dec 15 18:30 WSOPC Series: $315 Bounty King Circuit $315 $150,000
Dec 15 18:30 WSOPC Series: $315 Bounty King Omaha $315 $40,000
Dec 15 18:35 WSOPC High Rollers: $3,150 Blade Bounty King $3.150 $100,000
Dec 15 19:00 WSOPC Series: $55 Fifty Stack $55 $50,000
Dec 15 20:00 WSOPC Series: $300 Triple Chance $300 $75,000
Dec 15 20:00 WSOPC Series: $30 Mini Triple Chance $30 $25,000
Dec 15 20:05 WSOPC High Rollers: $2,500 Blade Mulligan $2,500 $150,000
Dec 15 20:35 WSOPC High Rollers: $2,500 Blade PLO $2,500 $50,000
Dec 15 21:00 WSOPC Series: $126 Deepstack Bounty Turbo $126 $60,000
Dec 15 22:00 WSOPC #6: $170 Mini Main Event, $2M GTD [Day 1] $170 $2,000,000
Dec 15 22:00 WSOPC Series: $80 The Closer $80 $25,000
Dec 15 22:00 WSOPC Series: $80 The PLOser $80 $15,000
Dec 15 22:05 WSOPC High Rollers: $2,500 Blade Closer $2,500 $100,000
Dec 16 10:00 WSOPC #6: $170 Mini Main Event, $2M GTD [Day 1] $170 $2,000,000
Dec 16 13:00 WSOPC Series: $200 Monster Stack $200 $50,000
Dec 16 14:00 WSOPC #6: $170 Mini Main Event, $2M GTD [Day 1] $170 $2,000,000
Dec 16 14:00 WSOPC Series: $300 Marathon $300 $100,000
Dec 16 14:00 WSOPC Series: $30 Mini Marathon $30 $50,000
Dec 16 15:00 WSOPC Series: $500 Fifty Stack $500 $100,000
Dec 16 15:30 WSOPC Series: $105 Bounty 6-Handed $105 $75,000
Dec 16 16:00 WSOPC Series: $400 Forty Stack $400 $100,000
Dec 16 16:05 WSOPC High Rollers: $2,500 Blade Opener $2,500 $100,000
Dec 16 16:30 WSOPC Series: $52.50 Bounty Hunters Daily Main $52,50 $100,000
Dec 16 17:00 WSOPC Series: $1,500 Deepstack $1,500 $150,000
Dec 16 17:30 WSOPC Series: $80 Deepstack Pot Limit Omaha $80 $20,000
Dec 16 18:00 WSOPC #6: $170 Mini Main Event, $2M GTD [Day 1] $170 $2,000,000
Dec 16 18:05 WSOPC High Rollers: $2,500 Blade Prime $2,500 $150,000
Dec 16 18:30 WSOPC Series: $315 Bounty King Circuit $315 $150,000
Dec 16 18:30 WSOPC Series: $315 Bounty King Omaha $315 $40,000
Dec 16 18:35 WSOPC High Rollers: $3,150 Blade Bounty King $3.150 $100,000
Dec 16 19:00 WSOPC Series: $55 Fifty Stack $55 $50,000
Dec 16 20:00 WSOPC Series: $300 Triple Chance $300 $75,000
Dec 16 20:00 WSOPC Series: $30 Mini Triple Chance $30 $25,000
Dec 16 20:05 WSOPC High Rollers: $2,500 Blade Mulligan $2,500 $150,000
Dec 16 20:35 WSOPC High Rollers: $2,500 Blade PLO $2,500 $50,000
Dec 16 21:00 WSOPC Series: $126 Deepstack Bounty Turbo $126 $60,000
Dec 16 22:00 WSOPC #6: $170 Mini Main Event, $2M GTD [Day 1] $170 $2,000,000
Dec 16 22:00 WSOPC Series: $80 The Closer $80 $25,000
Dec 16 22:00 WSOPC Series: $80 The PLOser $80 $15,000
Dec 16 22:05 WSOPC High Rollers: $2,500 Blade Closer $2,500 $100,000
Dec 17 10:00 WSOPC #6: $170 Mini Main Event, $2M GTD [Day 1] $170 $2,000,000
Dec 17 13:00 WSOPC Series: $200 Monster Stack $200 $50,000
Dec 17 14:00 WSOPC #6: $170 Mini Main Event, $2M GTD [Day 1] $170 $2,000,000
Dec 17 14:00 WSOPC Series: $300 Marathon $300 $100,000
Dec 17 14:00 WSOPC Series: $30 Mini Marathon $30 $50,000
Dec 17 15:00 WSOPC Series: $500 Fifty Stack $500 $100,000
Dec 17 15:30 WSOPC Series: $105 Bounty 6-Handed $105 $75,000
Dec 17 16:00 WSOPC Series: $400 Forty Stack $400 $100,000
Dec 17 16:05 WSOPC High Rollers: $2,500 Blade Opener $2,500 $100,000
Dec 17 16:30 WSOPC Series: $52.50 Bounty Hunters Daily Main $52,50 $100,000
Dec 17 17:00 WSOPC Series: $1,500 Deepstack $1,500 $150,000
Dec 17 17:30 WSOPC Series: $80 Deepstack Pot Limit Omaha $80 $20,000
Dec 17 18:00 WSOPC #6: $170 Mini Main Event, $2M GTD [Day 1] $170 $2,000,000
Dec 17 18:05 WSOPC High Rollers: $2,500 Blade Prime $2,500 $150,000
Dec 17 18:30 WSOPC Series: $315 Bounty King Circuit $315 $150,000
Dec 17 18:30 WSOPC Series: $315 Bounty King Omaha $315 $40,000
Dec 17 18:35 WSOPC High Rollers: $3,150 Blade Bounty King $3.150 $100,000
Dec 17 19:00 WSOPC Series: $55 Fifty Stack $55 $50,000
Dec 17 20:00 WSOPC Series: $300 Triple Chance $300 $75,000
Dec 17 20:00 WSOPC Series: $30 Mini Triple Chance $30 $25,000
Dec 17 20:05 WSOPC High Rollers: $2,500 Blade Mulligan $2,500 $150,000
Dec 17 20:35 WSOPC High Rollers: $2,500 Blade PLO $2,500 $50,000
Dec 17 21:00 WSOPC Series: $126 Deepstack Bounty Turbo $126 $60,000
Dec 17 22:00 WSOPC #6: $170 Mini Main Event, $2M GTD [Day 1] $170 $2,000,000
Dec 17 22:00 WSOPC Series: $80 The Closer $80 $25,000
Dec 17 22:00 WSOPC Series: $80 The PLOser $80 $15,000
Dec 17 22:05 WSOPC High Rollers: $2,500 Blade Closer $2,500 $100,000
Dec 18 10:00 WSOPC #6: $170 Mini Main Event, $2M GTD [Day 1] $170 $2,000,000
Dec 18 13:00 WSOPC Series: $200 Monster Stack $200 $50,000
Dec 18 14:00 WSOPC #6: $170 Mini Main Event, $2M GTD [Day 1] $170 $2,000,000
Dec 18 14:00 WSOPC Series: $300 Marathon $300 $100,000
Dec 18 14:00 WSOPC Series: $30 Mini Marathon $30 $50,000
Dec 18 15:00 WSOPC Series: $500 Fifty Stack $500 $100,000
Dec 18 15:30 WSOPC Series: $105 Bounty 6-Handed $105 $75,000
Dec 18 16:00 WSOPC Series: $400 Forty Stack $400 $100,000
Dec 18 16:05 WSOPC High Rollers: $2,500 Blade Opener $2,500 $100,000
Dec 18 16:30 WSOPC Series: $52.50 Bounty Hunters Daily Main $52,50 $100,000
Dec 18 17:00 WSOPC Series: $1,500 Deepstack $1,500 $150,000
Dec 18 17:30 WSOPC Series: $80 Deepstack Pot Limit Omaha $80 $20,000
Dec 18 18:00 WSOPC #6: $170 Mini Main Event, $2M GTD [Day 1] $170 $2,000,000
Dec 18 18:05 WSOPC High Rollers: $2,500 Blade Prime $2,500 $150,000
Dec 18 18:30 WSOPC Series: $315 Bounty King Circuit $315 $150,000
Dec 18 18:30 WSOPC Series: $315 Bounty King Omaha $315 $40,000
Dec 18 18:35 WSOPC High Rollers: $3,150 Blade Bounty King $3.150 $100,000
Dec 18 19:00 WSOPC Series: $55 Fifty Stack $55 $50,000
Dec 18 20:00 WSOPC Series: $300 Triple Chance $300 $75,000
Dec 18 20:00 WSOPC Series: $30 Mini Triple Chance $30 $25,000
Dec 18 20:05 WSOPC High Rollers: $2,500 Blade Mulligan $2,500 $150,000
Dec 18 20:35 WSOPC High Rollers: $2,500 Blade PLO $2,500 $50,000
Dec 18 21:00 WSOPC Series: $126 Deepstack Bounty Turbo $126 $60,000
Dec 18 22:00 WSOPC #6: $170 Mini Main Event, $2M GTD [Day 1] $170 $2,000,000
Dec 18 22:00 WSOPC Series: $80 The Closer $80 $25,000
Dec 18 22:00 WSOPC Series: $80 The PLOser $80 $15,000
Dec 18 22:05 WSOPC High Rollers: $2,500 Blade Closer $2,500 $100,000
Dec 19 10:00 WSOPC #6: $170 Mini Main Event, $2M GTD [Day 1] $170 $2,000,000
Dec 19 12:00 WSOPC #4: $800 Monster Stack No Limit Hold’em $800 $1,000,000
Dec 19 13:00 WSOPC Series: $200 Monster Stack $200 $50,000
Dec 19 14:00 WSOPC #6: $170 Mini Main Event, $2M GTD [Day 1] $170 $2,000,000
Dec 19 14:00 WSOPC Series: $300 Marathon $300 $100,000
Dec 19 14:00 WSOPC Series: $30 Mini Marathon $30 $50,000
Dec 19 15:00 WSOPC Series: $500 Fifty Stack $500 $100,000
Dec 19 15:30 WSOPC Series: $105 Bounty 6-Handed $105 $75,000
Dec 19 16:00 WSOPC Series: $400 Forty Stack $400 $100,000
Dec 19 16:05 WSOPC High Rollers: $2,500 Blade Opener $2,500 $100,000
Dec 19 16:30 WSOPC Series: $52.50 Bounty Hunters Daily Main $52,50 $100,000
Dec 19 17:00 WSOPC Series: $1,500 Deepstack $1,500 $150,000
Dec 19 17:30 WSOPC Series: $80 Deepstack Pot Limit Omaha $80 $20,000
Dec 19 18:00 WSOPC #6: $170 Mini Main Event, $2M GTD [Day 1] $170 $2,000,000
Dec 19 18:05 WSOPC High Rollers: $2,500 Blade Prime $2,500 $150,000
Dec 19 18:30 WSOPC Series: $315 Bounty King Circuit $315 $150,000
Dec 19 18:30 WSOPC Series: $315 Bounty King Omaha $315 $40,000
Dec 19 18:35 WSOPC High Rollers: $3,150 Blade Bounty King $3.150 $100,000
Dec 19 19:00 WSOPC Series: $55 Fifty Stack $55 $50,000
Dec 19 20:00 WSOPC Series: $300 Triple Chance $300 $75,000
Dec 19 20:00 WSOPC Series: $30 Mini Triple Chance $30 $25,000
Dec 19 20:05 WSOPC High Rollers: $2,500 Blade Mulligan $2,500 $150,000
Dec 19 20:35 WSOPC High Rollers: $2,500 Blade PLO $2,500 $50,000
Dec 19 21:00 WSOPC Series: $126 Deepstack Bounty Turbo $126 $60,000
Dec 19 22:00 WSOPC #6: $170 Mini Main Event, $2M GTD [Day 1] $170 $2,000,000
Dec 19 22:00 WSOPC Series: $80 The Closer $80 $25,000
Dec 19 22:00 WSOPC Series: $80 The PLOser $80 $15,000
Dec 19 22:05 WSOPC High Rollers: $2,500 Blade Closer $2,500 $100,000
Dec 20 18:00 WSOPC #5: $600 Pot Limit Omaha $600 $500,000
Dec 20 18:30 WSOPC #6: $170 Mini Main Event, $2M GTD [Day 2] $170 $2,000,000
Dec 21 12:00 WSOPC #10: $400 CHRISTMAS PLOSSUS, $1.225M GTD [Day 1] $400 $1.225,000
Dec 21 16:00 WSOPC #10: $400 CHRISTMAS PLOSSUS, $1.225M GTD [Day 1] $400 $1.225,000
Dec 21 20:00 WSOPC #10: $400 CHRISTMAS PLOSSUS, $1.225M GTD [Day 1] $400 $1.225,000
Dec 21 23:00 WSOPC #10: $400 CHRISTMAS PLOSSUS, $1.225M GTD [Day 1, Turbo] $400 $1.225,000
Dec 22 12:00 WSOPC #10: $400 CHRISTMAS PLOSSUS, $1.225M GTD [Day 1] $400 $1.225,000
Dec 22 16:00 WSOPC #10: $400 CHRISTMAS PLOSSUS, $1.225M GTD [Day 1] $400 $1.225,000
Dec 22 18:00 WSOPC #7: $1,500 No Limit Hold’em 6-Handed Championship $1,500 $1,000,000
Dec 22 20:00 WSOPC #10: $400 CHRISTMAS PLOSSUS, $1.225M GTD [Day 1] $400 $1.225,000
Dec 22 23:00 WSOPC #10: $400 CHRISTMAS PLOSSUS, $1.225M GTD [Day 1, Turbo] $400 $1.225,000
Dec 23 12:00 WSOPC #10: $400 CHRISTMAS PLOSSUS, $1.225M GTD [Day 1] $400 $1.225,000
Dec 23 16:00 WSOPC #10: $400 CHRISTMAS PLOSSUS, $1.225M GTD [Day 1] $400 $1.225,000
Dec 23 20:00 WSOPC #10: $400 CHRISTMAS PLOSSUS, $1.225M GTD [Day 1] $400 $1.225,000
Dec 23 23:00 WSOPC #10: $400 CHRISTMAS PLOSSUS, $1.225M GTD [Day 1, Turbo] $400 $1.225,000
Dec 24 12:00 WSOPC #10: $400 CHRISTMAS PLOSSUS, $1.225M GTD [Day 1] $400 $1.225,000
Dec 24 16:00 WSOPC #10: $400 CHRISTMAS PLOSSUS, $1.225M GTD [Day 1] $400 $1.225,000
Dec 24 20:00 WSOPC #10: $400 CHRISTMAS PLOSSUS, $1.225M GTD [Day 1] $400 $1.225,000
Dec 24 23:00 WSOPC #10: $400 CHRISTMAS PLOSSUS, $1.225M GTD [Day 1, Turbo] $400 $1.225,000
Dec 25 12:00 WSOPC #10: $400 CHRISTMAS PLOSSUS, $1.225M GTD [Day 1] $400 $1.225,000
Dec 25 16:00 WSOPC #10: $400 CHRISTMAS PLOSSUS, $1.225M GTD [Day 1] $400 $1.225,000
Dec 25 20:00 WSOPC #10: $400 CHRISTMAS PLOSSUS, $1.225M GTD [Day 1] $400 $1.225,000
Dec 25 23:00 WSOPC #10: $400 CHRISTMAS PLOSSUS, $1.225M GTD [Day 1, Turbo] $400 $1.225,000
Dec 26 12:00 WSOPC #8: $600 Marathon No Limit Hold’em $600 $500,000
Dec 26 12:00 WSOPC #10: $400 CHRISTMAS PLOSSUS, $1.225M GTD [Day 1] $400 $1.225,000
Dec 26 16:00 WSOPC #10: $400 CHRISTMAS PLOSSUS, $1.225M GTD [Day 1] $400 $1.225,000
Dec 26 20:00 WSOPC #10: $400 CHRISTMAS PLOSSUS, $1.225M GTD [Day 1] $400 $1.225,000
Dec 26 23:00 WSOPC #10: $400 CHRISTMAS PLOSSUS, $1.225M GTD [Day 1, Turbo] $400 $1.225,000
Dec 27 18:00 WSOPC #9: $315 BOUNTY GIANT No Limit Hold’em $315 $1,000,000
Dec 27 18:30 WSOPC #10: $400 CHRISTMAS PLOSSUS, $1.225M GTD [Day 2] $400 $1.225,000
Dec 28 12:00 WSOPC #15: $400 NEW YEAR COLOSSUS, $2.021M GTD [Day 1] $400 $2.021,000
Dec 28 16:00 WSOPC #15: $400 NEW YEAR COLOSSUS, $2.021M GTD [Day 1] $400 $2.021,000
Dec 28 20:00 WSOPC #15: $400 NEW YEAR COLOSSUS, $2.021M GTD [Day 1] $400 $2.021,000
Dec 28 23:00 WSOPC #15: $400 NEW YEAR COLOSSUS, $2.021M GTD [Day 1, Turbo] $400 $2.021,000
Dec 29 12:00 WSOPC #15: $400 NEW YEAR COLOSSUS, $2.021M GTD [Day 1] $400 $2.021,000
Dec 29 16:00 WSOPC #15: $400 NEW YEAR COLOSSUS, $2.021M GTD [Day 1] $400 $2.021,000
Dec 29 18:00 WSOPC #11: $1,050 Bounty Hunters Championship $1.050 $1,000,000
Dec 29 20:00 WSOPC #15: $400 NEW YEAR COLOSSUS, $2.021M GTD [Day 1] $400 $2.021,000
Dec 29 23:00 WSOPC #15: $400 NEW YEAR COLOSSUS, $2.021M GTD [Day 1, Turbo] $400 $2.021,000
Dec 30 12:00 WSOPC #15: $400 NEW YEAR COLOSSUS, $2.021M GTD [Day 1] $400 $2.021,000
Dec 30 16:00 WSOPC #15: $400 NEW YEAR COLOSSUS, $2.021M GTD [Day 1] $400 $2.021,000
Dec 30 20:00 WSOPC #15: $400 NEW YEAR COLOSSUS, $2.021M GTD [Day 1] $400 $2.021,000
Dec 30 23:00 WSOPC #15: $400 NEW YEAR COLOSSUS, $2.021M GTD [Day 1, Turbo] $400 $2.021,000
Dec 31 12:00 WSOPC #15: $400 NEW YEAR COLOSSUS, $2.021M GTD [Day 1] $400 $2.021,000
Dec 31 16:00 WSOPC #15: $400 NEW YEAR COLOSSUS, $2.021M GTD [Day 1] $400 $2.021,000
Dec 31 20:00 WSOPC #15: $400 NEW YEAR COLOSSUS, $2.021M GTD [Day 1] $400 $2.021,000
Dec 31 23:00 WSOPC #15: $400 NEW YEAR COLOSSUS, $2.021M GTD [Day 1, Turbo] $400 $2.021,000
Jan 1 12:00 WSOPC #15: $400 NEW YEAR COLOSSUS, $2.021M GTD [Day 1] $400 $2.021,000
Jan 1 16:00 WSOPC #15: $400 NEW YEAR COLOSSUS, $2.021M GTD [Day 1] $400 $2.021,000
Jan 1 20:00 WSOPC #15: $400 NEW YEAR COLOSSUS, $2.021M GTD [Day 1] $400 $2.021,000
Jan 1 23:00 WSOPC #15: $400 NEW YEAR COLOSSUS, $2.021M GTD [Day 1, Turbo] $400 $2.021,000
Jan 2 12:00 WSOPC #12: $500 Deepstack No Limit Hold’em $500 $500,000
Jan 2 12:00 WSOPC #15: $400 NEW YEAR COLOSSUS, $2.021M GTD [Day 1] $400 $2.021,000
Jan 2 16:00 WSOPC #15: $400 NEW YEAR COLOSSUS, $2.021M GTD [Day 1] $400 $2.021,000
Jan 2 18:00 WSOPC #13: $10,000 Heads Up NLHE [No Late Reg, 128 Cap] $10,000 $1,000,000
Jan 2 20:00 WSOPC #15: $400 NEW YEAR COLOSSUS, $2.021M GTD [Day 1] $400 $2.021,000
Jan 2 23:00 WSOPC #15: $400 NEW YEAR COLOSSUS, $2.021M GTD [Day 1, Turbo] $400 $2.021,000
Jan 3 18:00 WSOPC #14: $800 FIFTY STACK No Limit Hold’em $800 $1,000,000
Jan 3 18:30 WSOPC #15: $400 NEW YEAR COLOSSUS, $2.021M GTD [Final Day] $400 $2.021,000
Jan 4 13:00 WSOPC #18: $1,700 MAIN EVENT, $10M GTD [Day 1] $1.700 $10,000,000
Jan 4 19:00 WSOPC #18: $1,700 MAIN EVENT, $10M GTD [Day 1] $1.700 $10,000,000
Jan 5 13:00 WSOPC #18: $1,700 MAIN EVENT, $10M GTD [Day 1] $1.700 $10,000,000
Jan 5 18:00 WSOPC #16: $3,000 Pot Limit Omaha Championship $3,000 $500,000
Jan 5 19:00 WSOPC #18: $1,700 MAIN EVENT, $10M GTD [Day 1] $1.700 $10,000,000
06.01. 13:00 WSOPC #18: $1,700 MAIN EVENT, $10M GTD [Day 1] $1.700 $10,000,000
06.01. 19:00 WSOPC #18: $1,700 MAIN EVENT, $10M GTD [Day 1] $1.700 $10,000,000
Jan 7 13:00 WSOPC #18: $1,700 MAIN EVENT, $10M GTD [Day 1] $1.700 $10,000,000
Jan 7 19:00 WSOPC #18: $1,700 MAIN EVENT, $10M GTD [Day 1] $1.700 $10,000,000
Jan 8 13:00 WSOPC #18: $1,700 MAIN EVENT, $10M GTD [Day 1] $1.700 $10,000,000
Jan 8 19:00 WSOPC #18: $1,700 MAIN EVENT, $10M GTD [Day 1] $1.700 $10,000,000
Jan 9 12:00 WSOPC #17: $252 Deepstack Bounty Hunters No Limit Hold’em $252 $500,000
Jan 9 13:00 WSOPC #18: $1,700 MAIN EVENT, $10M GTD [Day 1] $1.700 $10,000,000
Jan 9 19:00 WSOPC #18: $1,700 MAIN EVENT, $10M GTD [Day 1] $1.700 $10,000,000
Jan 10 18:30 WSOPC #18: $1,700 MAIN EVENT, $10M GTD [Day 2] $1.700 $10,000,000
WSOP Winter Onine Circuit

Latest posts